РПИ Екатеринбург

РПИ Екатеринбург

Район полетной информации Екатеринбург (Урал) является структурным подразделением дивизиона VATRUS сети VATSIM.

В зону ответственности района входит воздушное пространство над территориями шести субъектов Российской Федерации: Кировской, Пермской, Курганской, Свердловской и Челябинской областей, а также республики Удмуртия. Воздушное пространство граничит с РПИ центров Москвы, Санкт-Петербурга, Сыктывкара, Тюмени, Новосибирска и Самары, а на юге - с территорией Казахстана.

Контролируемое воздушное пространство составляет 686,6 тысяч кв. километров. В границах ответственности РПИ Екатеринбург семь аэропортов, в их числе четыре международных и три – федерального значения.

Мы в Контакте

Средства связи ОВД / ATC Units:

RU-WSC_FSS - Западная Сибирь-Контроль (USSV, USTV FIRs)

USSV_CTR - Урал-Контроль - РЦ Екатеринбург - 122.200

USSV_1_CTR - Урал-Контроль - Сектор 1 - 122.200

USSV_2_CTR - Урал-Контроль - Сектор 2 (Север) - 131.300

USSV_3_CTR - Урал-Контроль - Сектор 3 - 127.300

USSV_4_CTR - Урал-Контроль - Сектор 4 (Курган) - 119.700

USSV_5_CTR - Урал-Контроль - Сектор 5 (Магнитогорск) - 125.500

USSV_6_CTR - Урал-Контроль - Сектор 6 (Челябинск) - 125.400

USSV_7_CTR - Урал-Контроль - Сектор 7  - 135.100

USSV_8_CTR - Урал-Контроль - Сектор 8 (Пермь) - 133.700

USSV_9_CTR - Урал-Контроль - Сектор 9 (Киров-Север) - 125.200

USSV_10_CTR - Урал-Контроль - Сектор 10 (Киров-Юг) - 132.200

Руководство

Andrey Tonkachev

Начальник РегЦ ЕС ОрВД (Екатеринбург)

Alexander Shkut

Event-менеджер
Инструкторы РПИ
Alexander Shkut * (Senior Student)
Andrey Tonkachev * (Senior Student)
Anton Agaev (Instructor)
Dmitriy Bannov (Instructor)
Ivan Malygin * (Senior Student)
Ivan Skatov (Instructor)
Kirill Rudavin (Instructor)
Maxim Gerasimov (Instructor)
Входит в состав
Центральная Россия

Диспетчеры РПИ

Диспетчер Рейтинг Допуски *
Alexander Shkut Senior Student USSV_CTR  *, USCC_APP, USCM_TWR, USPP_APP, USSS_APP, USUU_TWR
Anton Agaev Instructor USSV_CTR
Anton Fedosin Controller USSV_CTR
Dmitriy Bannov Instructor USSV_CTR
Kirill Ivanov Controller USSV_CTR
Kirill Rudavin Instructor USSV_CTR
Maxim Gerasimov Instructor USSV_CTR
Maxim Khromtsov Controller USSV_CTR
Vadim Filev Controller USSV_CTR
Victor Rudnov Instructor USSV_CTR
Vladimir Anisimov Controller USSV_CTR
Aleksey Garmash Student 2 USSS_R_APP*, USSS_TWR
Alexandr Jaschinsky Student 2 USSS_TWR*
Andrey Gridchin Controller USSS_APP
Andrey Shestakov Senior Student USCC_APP, USCM_TWR, USPP_APP, USSS_APP, USUU_TWR
Andrey Tarasov Student 2 USSS_APP*
Andrey Tonkachev Senior Student USCC_APP, USCM_TWR, USPP_APP, USSS_APP, USUU_TWR
Eldar Aliev Student 2 USCC_TWR, USPP_TWR, USSS_APP*
Igor Shitov Senior Student USSS_APP
Ivan Malygin Senior Student USCC_APP, USCM_TWR, USPP_APP, USSS_APP, USUU_TWR
Kirill Ardatov Student 2 USSS_TWR
Kirill Chermeninov Student USSS_GND
Kirill Shabunin Senior Controller USSS_APP
Konstantin Norkin Student 2 USSS_TWR
Maksim Tretyakov Student USSS_GND
Nika Avdalov Student 2 USCC_TWR, USPP_TWR, USSS_TWR
Olga Moskaeva Student USSS_GND
Vladislav Kepkov Student 2 USCC_R_APP*
Vsevolod Skryabin Student 2 USSS_TWR!!!

Аэропорты РПИ

ICAO Город Название Погода
USSS Екатеринбург Кольцово USSS 100700Z 20003MPS CAVOK M10/M15 Q1031 R26L/420350 NOSIG RMK QFE753/1004
USII Ижевск Ижевск
USKK Киров Киров
USUU Курган Курган
USCM Магнитогорск Магнитогорск USCM 100700Z 21010MPS 9999 NSC M11/M18 Q1035 R18/090060 TEMPO 21013MPS RMK QFE738
USPP Пермь Пермь USPP 100700Z 19005MPS 1700 R21/1700D SN BKN014 M09/M12 Q1027 R21/390135 TEMPO 17006G15MPS RMK QFE760
USCC Челябинск Челябинск USCC 100700Z 24006MPS CAVOK M05/M15 Q1033 R27/450242 NOSIG RMK QFE755